2OH8 weather

Port-O-John Airport
Derby, Ohio, United States

Public forecast

Using degrees Fahrenheit for public forecast. Weather courtesy of forecast.io.

Closest aviation weather report (METAR) to Port-O-John Airport

Closest report is Bolton Field, 7.5 nm (13.9 km) NNE. Retrieved 2020/01/29 19:47 UTC (17 minutes ago):

KTZR 291947Z 07005KT 10SM OVC023 01/M04 A3012

Closest aviation forecast (TAF) to Port-O-John Airport

Closest forecast is Rickenbacker International Airport, 13.7 nm (25.3 km) E. Retrieved 2020/01/29 18:44 UTC (1 hour ago):

TAF KLCK 291738Z 2918/3018 VRB04KT P6SM OVC035 TEMPO 2918/2922 09006KT OVC030 FM301200 00000KT P6SM OVC040